createdAt,value
2019-06-08T00:14:13.183Z,22.70
2019-06-08T00:44:19.261Z,23.00
2019-06-08T01:14:24.858Z,22.90
2019-06-08T01:44:32.041Z,22.50
2019-06-08T02:14:37.425Z,22.60
2019-06-08T02:44:42.710Z,22.20
2019-06-08T03:14:50.927Z,22.40
2019-06-08T03:44:56.350Z,23.80
2019-06-08T04:15:01.832Z,26.40
2019-06-08T04:45:07.594Z,28.60
2019-06-08T05:15:13.025Z,30.00
2019-06-08T05:45:18.459Z,30.00
2019-06-08T06:15:23.828Z,30.20
2019-06-08T06:45:29.067Z,30.30
2019-06-08T07:15:41.469Z,30.40
2019-06-08T07:45:41.482Z,30.40
2019-06-08T08:15:46.832Z,30.80
2019-06-08T08:45:52.161Z,30.40
2019-06-08T09:16:00.786Z,30.60
2019-06-08T09:46:05.533Z,30.60
2019-06-08T10:16:11.466Z,30.40
2019-06-08T10:46:20.549Z,30.10
2019-06-08T11:16:23.970Z,30.30
2019-06-08T11:46:29.408Z,29.30
2019-06-08T12:16:34.836Z,27.70
2019-06-08T12:46:41.356Z,26.90
2019-06-08T13:16:48.924Z,28.60
2019-06-08T13:46:53.962Z,29.40
2019-06-08T14:17:00.104Z,29.20
2019-06-08T14:47:14.415Z,28.50
2019-06-08T15:17:19.711Z,26.40
2019-06-08T15:47:26.116Z,26.30
2019-06-08T16:17:31.553Z,25.70
2019-06-08T16:47:36.878Z,25.80
2019-06-08T17:17:42.090Z,26.70
2019-06-08T17:47:47.326Z,26.70
2019-06-08T18:17:52.786Z,25.60
2019-06-08T18:47:58.243Z,24.80
2019-06-08T19:18:03.849Z,24.10
2019-06-08T19:48:10.234Z,23.50
2019-06-08T20:18:17.185Z,23.30
2019-06-08T20:48:22.667Z,23.10
2019-06-08T21:18:27.882Z,22.70
2019-06-08T21:48:33.141Z,22.10
2019-06-08T22:18:39.322Z,21.50
2019-06-08T22:48:44.592Z,20.90
2019-06-08T23:18:49.934Z,20.70
2019-06-08T23:48:58.938Z,20.00
